Time;durP1;ratioP1;P1;durP2;ratioP2;P2;SDS_P1;SDS_P2;PMS_P1;PMS_P2;Temp;Humidity;BMP_temperature;BMP_pressure;BME280_temperature;BME280_humidity;BME280_pressure;Samples;Min_cycle;Max_cycle;Signal;HPM_P1;HPM_P2
2022/10/27 00:01:18;;;;;;;0.00;0.00;;;14.10;99.90;;;;;;5045932;28;20423;-85
2022/10/27 00:03:49;;;;;;;0.00;0.00;;;14.20;99.90;;;;;;5047618;28;20056;-85
2022/10/27 00:06:16;;;;;;;0.00;0.00;;;14.20;99.90;;;;;;5049434;28;20412;-85
2022/10/27 00:08:43;;;;;;;0.00;0.00;;;14.20;99.90;;;;;;5050935;28;20041;-86
2022/10/27 00:11:09;;;;;;;0.00;0.00;;;15.60;99.90;;;;;;5046644;28;20045;-86
2022/10/27 00:13:37;;;;;;;0.00;0.00;;;14.10;99.90;;;;;;5043889;28;20045;-86
2022/10/27 00:16:08;;;;;;;0.00;0.00;;;14.20;99.90;;;;;;5045012;28;20033;-86
2022/10/27 00:18:36;;;;;;;0.00;0.00;;;14.40;99.90;;;;;;5045009;28;20424;-87
2022/10/27 00:21:05;;;;;;;0.00;0.00;;;14.20;99.90;;;;;;5048359;28;20068;-85
2022/10/27 00:23:32;;;;;;;0.00;0.00;;;14.20;99.90;;;;;;5049316;28;20051;-88
2022/10/27 00:25:59;;;;;;;0.00;0.00;;;;;;;;;;5046991;28;20339;-86
2022/10/27 00:28:27;;;;;;;0.00;0.00;;;14.20;99.90;;;;;;5042741;28;20040;-86
2022/10/27 00:30:58;;;;;;;0.00;0.00;;;14.10;99.90;;;;;;5046753;28;20059;-85
2022/10/27 00:33:27;;;;;;;0.00;0.00;;;14.10;99.90;;;;;;5061965;28;20052;-86
2022/10/27 00:35:54;;;;;;;0.00;0.00;;;14.10;99.90;;;;;;5052588;28;20055;-86
2022/10/27 00:38:22;;;;;;;0.00;0.00;;;14.70;99.90;;;;;;5044948;28;20063;-86
2022/10/27 00:40:49;;;;;;;0.00;0.00;;;14.30;99.90;;;;;;5052049;28;20072;-85
2022/10/27 00:43:26;;;;;;;0.00;0.00;;;14.10;99.90;;;;;;5046358;28;20052;-86
2022/10/27 00:45:55;;;;;;;0.00;0.00;;;14.10;99.90;;;;;;5049482;28;20041;-87
2022/10/27 00:48:24;;;;;;;0.00;0.00;;;14.00;99.90;;;;;;5048690;28;20673;-86
2022/10/27 00:50:52;;;;;;;0.00;0.00;;;16.40;99.90;;;;;;5049260;28;20049;-86
2022/10/27 00:53:19;;;;;;;0.00;0.00;;;15.10;99.90;;;;;;5043581;28;20116;-86
2022/10/27 00:55:46;;;;;;;0.00;0.00;;;14.10;99.90;;;;;;5046486;28;20051;-86
2022/10/27 00:58:15;;;;;;;0.00;0.00;;;14.00;99.90;;;;;;5045395;28;20041;-86
2022/10/27 01:00:42;;;;;;;0.00;0.00;;;14.10;99.90;;;;;;5042439;28;20055;-86
2022/10/27 01:03:13;;;;;;;0.00;0.00;;;14.10;99.90;;;;;;5047463;28;20460;-87
2022/10/27 01:05:41;;;;;;;0.00;0.00;;;14.50;99.90;;;;;;5045046;28;20593;-87
2022/10/27 01:08:11;;;;;;;0.00;0.00;;;14.50;99.90;;;;;;5051147;28;20039;-87
2022/10/27 01:10:38;;;;;;;0.00;0.00;;;13.80;99.90;;;;;;5045524;28;20437;-87
2022/10/27 01:13:05;;;;;;;0.00;0.00;;;13.80;99.90;;;;;;5046706;28;20045;-86
2022/10/27 01:15:38;;;;;;;0.00;0.00;;;13.80;99.90;;;;;;5043063;28;20037;-86
2022/10/27 01:18:14;;;;;;;0.00;0.00;;;13.80;99.90;;;;;;5046646;28;20128;-86
2022/10/27 01:21:05;;;;;;;0.00;0.00;;;13.80;99.90;;;;;;5044470;28;20511;-85
2022/10/27 01:23:47;;;;;;;0.00;0.00;;;13.70;99.90;;;;;;5045022;28;20072;-87
2022/10/27 01:26:35;;;;;;;0.00;0.00;;;13.60;99.90;;;;;;5041389;28;20510;-86
2022/10/27 01:29:32;;;;;;;0.00;0.00;;;13.60;99.90;;;;;;5045802;28;20499;-85
2022/10/27 01:32:09;;;;;;;0.00;0.00;;;13.50;99.90;;;;;;5040710;28;20072;-85
2022/10/27 01:34:43;;;;;;;0.00;0.00;;;13.50;99.90;;;;;;5051906;28;20045;-85
2022/10/27 01:37:14;;;;;;;0.00;0.00;;;14.70;99.90;;;;;;5043745;28;20045;-86
2022/10/27 01:39:47;;;;;;;0.00;0.00;;;13.40;99.90;;;;;;5038079;28;20712;-85
2022/10/27 01:42:19;;;;;;;0.00;0.00;;;13.90;99.90;;;;;;5042127;28;20508;-86
2022/10/27 01:44:51;;;;;;;0.00;0.00;;;13.30;99.90;;;;;;5047382;28;20056;-86
2022/10/27 01:47:21;;;;;;;0.00;0.00;;;13.10;99.90;;;;;;5043634;28;20152;-86
2022/10/27 01:49:51;;;;;;;0.00;0.00;;;14.60;99.90;;;;;;5045407;28;20510;-86
2022/10/27 01:52:41;;;;;;;0.00;0.00;;;13.10;99.90;;;;;;5043764;28;20213;-86
2022/10/27 01:55:13;;;;;;;0.00;0.00;;;13.00;99.90;;;;;;5045216;28;20036;-86
2022/10/27 01:57:53;;;;;;;0.00;0.00;;;14.20;99.90;;;;;;5042726;28;20522;-86
2022/10/27 02:00:21;;;;;;;0.00;0.00;;;12.90;99.90;;;;;;5041537;28;20567;-86
2022/10/27 02:02:54;;;;;;;0.00;0.00;;;12.90;99.90;;;;;;5040190;28;20148;-85
2022/10/27 02:05:34;;;;;;;0.00;0.00;;;12.90;99.90;;;;;;5048553;28;20475;-87
2022/10/27 02:08:07;;;;;;;0.00;0.00;;;12.90;99.90;;;;;;5041431;28;20048;-86
2022/10/27 02:10:42;;;;;;;0.00;0.00;;;12.90;99.90;;;;;;5045929;28;20049;-88
2022/10/27 02:13:10;;;;;;;0.00;0.00;;;12.90;99.90;;;;;;5048757;28;20053;-88
2022/10/27 02:15:41;;;;;;;0.00;0.00;;;12.90;99.90;;;;;;5052736;28;20048;-87
2022/10/27 02:18:14;;;;;;;0.00;0.00;;;12.80;99.90;;;;;;5056369;28;20098;-89
2022/10/27 02:20:48;;;;;;;0.10;0.10;;;12.80;99.90;;;;;;5054302;28;20043;-87
2022/10/27 02:23:17;;;;;;;0.00;0.00;;;12.80;99.90;;;;;;5043919;28;20084;-88
2022/10/27 02:25:50;;;;;;;0.00;0.00;;;12.80;99.90;;;;;;5051695;28;20073;-87
2022/10/27 02:28:21;;;;;;;0.00;0.00;;;12.80;99.90;;;;;;5050037;28;20461;-88
2022/10/27 02:30:48;;;;;;;0.00;0.00;;;;;;;;;;5053668;28;20104;-88
2022/10/27 02:33:17;;;;;;;0.00;0.00;;;12.70;99.90;;;;;;5050157;28;20125;-85
2022/10/27 02:35:44;;;;;;;0.00;0.00;;;12.60;99.90;;;;;;5047592;28;20519;-85
2022/10/27 02:38:14;;;;;;;0.08;0.08;;;12.60;99.90;;;;;;5041433;28;21302;-87
2022/10/27 02:40:41;;;;;;;0.00;0.00;;;14.60;99.90;;;;;;5047426;28;20051;-88
2022/10/27 02:43:08;;;;;;;0.00;0.00;;;12.30;99.90;;;;;;5042383;28;20072;-86
2022/10/27 02:45:35;;;;;;;0.00;0.00;;;12.30;99.90;;;;;;5042392;28;20045;-85
2022/10/27 02:48:02;;;;;;;0.00;0.00;;;13.80;99.90;;;;;;5050025;28;20048;-86
2022/10/27 02:50:30;;;;;;;0.00;0.00;;;12.30;99.90;;;;;;5044001;28;20717;-86
2022/10/27 02:52:57;;;;;;;0.00;0.00;;;12.40;99.90;;;;;;5046152;28;20546;-88
2022/10/27 02:55:24;;;;;;;0.00;0.00;;;12.30;99.90;;;;;;5046619;28;20045;-86
2022/10/27 02:57:51;;;;;;;0.10;0.10;;;12.40;99.90;;;;;;5044716;28;20045;-85
2022/10/27 03:00:18;;;;;;;0.10;0.10;;;12.30;99.90;;;;;;5045938;28;20706;-87
2022/10/27 03:02:46;;;;;;;0.00;0.00;;;12.30;99.90;;;;;;5046196;28;20044;-86
2022/10/27 03:05:14;;;;;;;0.00;0.00;;;;;;;;;;5046233;28;20045;-85
2022/10/27 03:07:43;;;;;;;0.00;0.00;;;12.30;99.90;;;;;;5049400;28;20045;-86
2022/10/27 03:10:10;;;;;;;0.00;0.00;;;12.30;99.90;;;;;;5039505;28;20332;-85
2022/10/27 03:12:37;;;;;;;0.00;0.00;;;12.30;99.90;;;;;;5042009;28;20065;-84
2022/10/27 03:15:06;;;;;;;0.00;0.00;;;12.30;99.90;;;;;;5045261;28;20065;-86
2022/10/27 03:17:33;;;;;;;0.00;0.00;;;12.30;99.90;;;;;;5047062;28;20511;-86
2022/10/27 03:20:00;;;;;;;0.00;0.00;;;12.30;99.90;;;;;;5042189;28;20063;-87
2022/10/27 03:22:27;;;;;;;0.10;0.10;;;;;;;;;;5046393;28;20049;-86
2022/10/27 03:24:56;;;;;;;0.00;0.00;;;12.40;99.90;;;;;;5044079;28;20503;-85
2022/10/27 03:27:23;;;;;;;0.00;0.00;;;12.40;99.90;;;;;;5048072;28;20042;-86
2022/10/27 03:29:49;;;;;;;0.00;0.00;;;12.40;99.90;;;;;;5041487;28;20124;-85
2022/10/27 03:32:16;;;;;;;0.00;0.00;;;14.90;99.90;;;;;;5043719;28;20096;-87
2022/10/27 03:34:43;;;;;;;0.00;0.00;;;12.10;99.90;;;;;;5048018;28;20119;-87
2022/10/27 03:37:10;;;;;;;0.00;0.00;;;12.20;99.90;;;;;;5045804;28;20049;-87
2022/10/27 03:39:37;;;;;;;0.00;0.00;;;;;;;;;;5042365;28;20063;-87
2022/10/27 03:42:05;;;;;;;0.00;0.00;;;12.20;99.90;;;;;;5046419;28;20124;-87
2022/10/27 03:44:33;;;;;;;0.00;0.00;;;;;;;;;;5047919;28;20112;-87
2022/10/27 03:46:59;;;;;;;0.10;0.10;;;12.00;99.90;;;;;;5040139;28;20041;-87
2022/10/27 03:49:26;;;;;;;0.00;0.00;;;13.70;99.90;;;;;;5048060;28;20037;-86
2022/10/27 03:51:54;;;;;;;0.00;0.00;;;12.00;99.90;;;;;;5048348;28;20489;-86
2022/10/27 03:54:21;;;;;;;0.10;0.10;;;12.00;99.90;;;;;;5046865;28;20051;-86
2022/10/27 03:56:48;;;;;;;0.10;0.10;;;12.00;99.90;;;;;;5040092;28;20416;-85
2022/10/27 03:59:16;;;;;;;0.00;0.00;;;12.00;99.90;;;;;;5044264;28;20136;-85
2022/10/27 04:01:44;;;;;;;0.00;0.00;;;12.00;99.90;;;;;;5041705;28;20045;-86
2022/10/27 04:04:11;;;;;;;0.00;0.00;;;12.00;99.90;;;;;;5041961;28;20041;-87
2022/10/27 04:06:38;;;;;;;0.00;0.00;;;11.90;99.90;;;;;;5042063;28;20387;-86
2022/10/27 04:09:05;;;;;;;0.00;0.00;;;12.00;99.90;;;;;;5042808;28;20489;-85
2022/10/27 04:11:36;;;;;;;0.00;0.00;;;12.00;99.90;;;;;;5045971;28;20071;-86
2022/10/27 04:14:04;;;;;;;0.00;0.00;;;;;;;;;;5039982;28;20044;-86
2022/10/27 04:16:32;;;;;;;0.00;0.00;;;11.90;99.90;;;;;;5038452;28;20041;-88
2022/10/27 04:18:59;;;;;;;0.08;0.08;;;11.90;99.90;;;;;;5041862;28;20037;-86
2022/10/27 04:21:26;;;;;;;0.00;0.00;;;;;;;;;;5039894;28;20045;-85
2022/10/27 04:23:53;;;;;;;0.00;0.00;;;;;;;;;;5045379;28;20064;-87
2022/10/27 04:26:20;;;;;;;0.00;0.00;;;;;;;;;;5050413;28;20040;-87
2022/10/27 04:28:47;;;;;;;0.00;0.00;;;11.90;99.90;;;;;;5044967;28;20055;-85
2022/10/27 04:31:14;;;;;;;0.00;0.00;;;12.20;99.90;;;;;;5047700;28;20060;-87
2022/10/27 04:33:42;;;;;;;0.00;0.00;;;12.30;99.90;;;;;;5051115;28;20037;-87
2022/10/27 04:36:09;;;;;;;0.00;0.00;;;11.70;99.90;;;;;;5046110;28;20575;-87
2022/10/27 04:38:36;;;;;;;0.00;0.00;;;;;;;;;;5052621;28;20060;-85
2022/10/27 04:41:03;;;;;;;0.00;0.00;;;11.80;99.90;;;;;;5048544;28;20045;-86
2022/10/27 04:43:30;;;;;;;0.00;0.00;;;11.80;99.90;;;;;;5042653;28;20048;-86
2022/10/27 04:45:57;;;;;;;0.00;0.00;;;11.70;99.90;;;;;;5044973;28;20539;-87
2022/10/27 04:48:24;;;;;;;0.00;0.00;;;12.80;99.90;;;;;;5048769;28;20254;-87
2022/10/27 04:50:52;;;;;;;0.00;0.00;;;11.70;99.90;;;;;;5042870;28;20076;-86
2022/10/27 04:53:19;;;;;;;0.00;0.00;;;;;;;;;;5057344;28;20504;-87
2022/10/27 04:55:49;;;;;;;0.00;0.00;;;11.60;99.90;;;;;;5048529;28;20500;-86
2022/10/27 04:58:15;;;;;;;0.10;0.10;;;11.60;99.90;;;;;;5052378;28;20080;-86
2022/10/27 05:00:42;;;;;;;0.00;0.00;;;11.60;99.90;;;;;;5050973;28;20049;-87
2022/10/27 05:03:09;;;;;;;0.00;0.00;;;11.60;99.90;;;;;;5053141;28;20127;-86
2022/10/27 05:05:36;;;;;;;0.00;0.00;;;;;;;;;;5051777;28;20041;-87
2022/10/27 05:08:05;;;;;;;0.00;0.00;;;11.60;99.90;;;;;;5051738;28;20499;-86
2022/10/27 05:10:33;;;;;;;0.00;0.00;;;11.60;99.90;;;;;;5046314;28;20063;-87
2022/10/27 05:15:35;;;;;;;0.00;0.00;;;11.60;99.90;;;;;;5059020;28;20029;-87
2022/10/27 05:18:02;;;;;;;0.00;0.00;;;12.10;99.90;;;;;;5063510;28;20296;-86
2022/10/27 05:20:33;;;;;;;0.00;0.00;;;11.60;99.90;;;;;;5047956;28;20026;-85
2022/10/27 05:23:00;;;;;;;0.08;0.08;;;;;;;;;;5060977;28;20041;-84
2022/10/27 05:25:29;;;;;;;0.00;0.00;;;11.50;99.90;;;;;;5065266;28;20025;-86
2022/10/27 05:28:02;;;;;;;0.00;0.00;;;12.50;99.90;;;;;;5056646;28;20032;-86
2022/10/27 05:30:30;;;;;;;0.00;0.00;;;;;;;;;;5053388;28;20048;-86
2022/10/27 05:32:57;;;;;;;0.00;0.00;;;;;;;;;;5048009;28;20052;-84
2022/10/27 05:35:24;;;;;;;0.00;0.00;;;;;;;;;;5048236;28;20030;-86
2022/10/27 05:37:51;;;;;;;0.00;0.00;;;11.40;99.90;;;;;;5046876;28;20066;-87
2022/10/27 05:40:19;;;;;;;0.00;0.00;;;;;;;;;;5051771;28;20045;-86
2022/10/27 05:42:51;;;;;;;0.00;0.00;;;11.40;99.90;;;;;;5047613;28;20065;-83
2022/10/27 05:45:20;;;;;;;0.00;0.00;;;11.40;99.90;;;;;;5051597;28;20040;-85
2022/10/27 05:47:47;;;;;;;0.00;0.00;;;;;;;;;;5049089;28;20049;-83
2022/10/27 05:50:14;;;;;;;0.00;0.00;;;11.40;99.90;;;;;;5050816;28;20057;-86
2022/10/27 05:52:44;;;;;;;0.00;0.00;;;11.30;99.90;;;;;;5051705;28;20029;-82
2022/10/27 05:55:11;;;;;;;0.00;0.00;;;11.80;99.90;;;;;;5052410;28;20029;-86
2022/10/27 05:57:38;;;;;;;0.00;0.00;;;;;;;;;;5055361;28;20054;-85
2022/10/27 06:00:08;;;;;;;0.00;0.00;;;11.30;99.90;;;;;;5058873;28;20048;-84
2022/10/27 06:02:35;;;;;;;0.00;0.00;;;11.30;99.90;;;;;;5054072;28;20040;-84
2022/10/27 06:05:02;;;;;;;0.00;0.00;;;11.30;99.90;;;;;;5056941;28;20034;-86
2022/10/27 06:07:29;;;;;;;0.00;0.00;;;11.30;99.90;;;;;;5058403;28;20036;-86
2022/10/27 06:09:56;;;;;;;0.00;0.00;;;;;;;;;;5049731;28;20075;-84
2022/10/27 06:12:23;;;;;;;0.00;0.00;;;11.20;99.90;;;;;;5062023;28;20028;-86
2022/10/27 06:14:50;;;;;;;0.00;0.00;;;11.20;99.90;;;;;;5060055;28;20037;-85
2022/10/27 06:17:18;;;;;;;0.00;0.00;;;12.10;99.90;;;;;;5051052;28;20017;-86
2022/10/27 06:19:46;;;;;;;0.00;0.00;;;;;;;;;;5056767;28;20029;-85
2022/10/27 06:22:13;;;;;;;0.00;0.00;;;;;;;;;;5052527;28;20055;-85
2022/10/27 06:24:42;;;;;;;0.00;0.00;;;11.20;99.90;;;;;;5044567;28;20064;-86
2022/10/27 06:27:09;;;;;;;0.10;0.10;;;11.50;99.90;;;;;;5059255;28;20059;-86
2022/10/27 06:29:36;;;;;;;0.00;0.00;;;;;;;;;;5067323;28;20024;-85
2022/10/27 06:32:03;;;;;;;0.00;0.00;;;11.10;99.90;;;;;;5049983;28;20060;-86
2022/10/27 06:34:31;;;;;;;0.00;0.00;;;11.10;99.90;;;;;;5055464;28;20054;-85
2022/10/27 06:36:59;;;;;;;0.00;0.00;;;;;;;;;;5058439;28;20041;-85
2022/10/27 06:39:27;;;;;;;0.00;0.00;;;11.10;99.90;;;;;;5050360;28;20041;-85
2022/10/27 06:41:54;;;;;;;0.00;0.00;;;12.30;99.90;;;;;;5060204;28;20033;-85
2022/10/27 06:44:21;;;;;;;0.00;0.00;;;11.10;99.90;;;;;;5059126;28;20064;-85
2022/10/27 06:46:48;;;;;;;0.00;0.00;;;11.10;99.90;;;;;;5059322;28;20073;-86
2022/10/27 06:49:15;;;;;;;0.00;0.00;;;11.10;99.90;;;;;;5049632;28;20030;-86
2022/10/27 06:51:45;;;;;;;0.00;0.00;;;11.10;99.90;;;;;;5059304;28;20045;-86
2022/10/27 06:54:12;;;;;;;0.00;0.00;;;;;;;;;;5077940;28;20040;-85
2022/10/27 06:56:39;;;;;;;0.00;0.00;;;11.20;99.90;;;;;;5053404;28;20053;-84
2022/10/27 06:59:06;;;;;;;0.00;0.00;;;;;;;;;;5048152;28;20808;-85
2022/10/27 07:01:33;;;;;;;0.00;0.00;;;11.30;99.90;;;;;;5055977;28;20061;-85
2022/10/27 07:04:00;;;;;;;0.00;0.00;;;11.40;99.90;;;;;;5050364;28;20049;-85
2022/10/27 07:06:29;;;;;;;0.00;0.00;;;;;;;;;;5048335;28;20282;-85
2022/10/27 07:08:59;;;;;;;0.00;0.00;;;11.40;99.90;;;;;;5048847;28;20064;-86
2022/10/27 07:11:30;;;;;;;0.00;0.00;;;11.50;99.90;;;;;;5049216;28;20042;-85
2022/10/27 07:13:57;;;;;;;0.00;0.00;;;12.70;99.90;;;;;;5054197;28;20032;-86
2022/10/27 07:16:24;;;;;;;0.00;0.00;;;13.50;99.90;;;;;;5050902;28;20060;-84
2022/10/27 07:18:50;;;;;;;0.00;0.00;;;11.80;99.90;;;;;;5049575;28;20044;-84
2022/10/27 07:21:18;;;;;;;0.00;0.00;;;;;;;;;;5053808;28;20030;-85
2022/10/27 07:23:44;;;;;;;0.00;0.00;;;11.90;99.90;;;;;;5051451;28;20049;-84
2022/10/27 07:26:13;;;;;;;0.00;0.00;;;12.00;99.90;;;;;;5046490;28;20293;-84
2022/10/27 07:28:40;;;;;;;0.00;0.00;;;;;;;;;;5052735;28;20068;-85
2022/10/27 07:31:07;;;;;;;0.00;0.00;;;12.30;99.90;;;;;;5051538;28;20530;-85
2022/10/27 07:33:33;;;;;;;0.00;0.00;;;12.30;99.90;;;;;;5051901;28;20041;-85
2022/10/27 07:36:00;;;;;;;0.00;0.00;;;12.40;99.90;;;;;;5040455;28;20275;-82
2022/10/27 07:38:27;;;;;;;0.00;0.00;;;13.40;99.90;;;;;;5043269;28;20076;-84
2022/10/27 07:40:55;;;;;;;0.00;0.00;;;12.60;99.90;;;;;;5040271;28;20049;-81
2022/10/27 07:43:23;;;;;;;0.00;0.00;;;13.50;99.90;;;;;;5032976;28;20058;-84
2022/10/27 07:45:50;;;;;;;0.00;0.00;;;;;;;;;;5077352;22;20041;-85
2022/10/27 07:48:18;;;;;;;0.00;0.00;;;;;;;;;;5066117;28;20073;-84
2022/10/27 07:50:44;;;;;;;0.00;0.00;;;12.80;99.90;;;;;;5070509;28;20037;-82
2022/10/27 07:53:14;;;;;;;0.00;0.00;;;;;;;;;;5061446;28;20040;-83
2022/10/27 07:55:51;;;;;;;0.00;0.00;;;;;;;;;;5057572;28;20056;-85
2022/10/27 08:00:55;;;;;;;0.00;0.00;;;13.00;99.90;;;;;;5065606;28;20529;-83
2022/10/27 08:03:28;;;;;;;;;;;13.20;99.90;;;;;;5064764;28;20070;-85
2022/10/27 08:05:59;;;;;;;0.00;0.00;;;13.20;99.90;;;;;;5071540;28;20517;-85
2022/10/27 08:08:26;;;;;;;0.00;0.00;;;13.70;99.90;;;;;;5067362;28;20079;-86
2022/10/27 08:10:53;;;;;;;0.00;0.00;;;13.40;99.90;;;;;;5088261;28;20040;-84
2022/10/27 08:13:19;;;;;;;0.10;0.10;;;13.40;99.90;;;;;;5086601;28;20135;-87
2022/10/27 08:15:47;;;;;;;0.00;0.00;;;15.00;99.90;;;;;;5077304;28;20076;-88
2022/10/27 08:18:16;;;;;;;0.00;0.00;;;13.50;99.90;;;;;;5086038;28;20036;-88
2022/10/27 08:20:44;;;;;;;0.00;0.00;;;13.60;99.90;;;;;;5083518;28;20515;-86
2022/10/27 08:23:13;;;;;;;0.00;0.00;;;13.70;99.90;;;;;;5082417;28;20104;-86
2022/10/27 08:25:40;;;;;;;0.00;0.00;;;14.20;99.90;;;;;;5089187;28;20044;-87
2022/10/27 08:28:08;;;;;;;0.00;0.00;;;13.70;99.90;;;;;;5080582;28;20098;-86
2022/10/27 08:30:35;;;;;;;0.00;0.00;;;13.80;99.90;;;;;;5085553;28;20067;-85
2022/10/27 08:33:12;;;;;;;0.00;0.00;;;13.80;99.90;;;;;;5084712;28;20079;-86
2022/10/27 08:35:41;;;;;;;0.00;0.00;;;13.90;99.90;;;;;;5088691;28;20741;-85
2022/10/27 08:38:12;;;;;;;0.10;0.10;;;14.00;99.90;;;;;;5086440;28;20068;-86
2022/10/27 08:40:49;;;;;;;0.00;0.00;;;14.10;99.90;;;;;;5086887;28;20063;-87
2022/10/27 08:43:44;;;;;;;0.00;0.00;;;14.20;99.90;;;;;;5087951;28;20042;-88
2022/10/27 08:46:19;;;;;;;0.00;0.00;;;14.30;99.90;;;;;;5085310;28;20078;-87
2022/10/27 08:48:48;;;;;;;0.00;0.00;;;16.60;99.90;;;;;;5087817;28;20472;-85
2022/10/27 08:51:21;;;;;;;0.00;0.00;;;14.40;99.90;;;;;;5081031;28;20040;-86
2022/10/27 08:53:52;;;;;;;0.00;0.00;;;14.50;99.90;;;;;;5081512;28;20071;-86
2022/10/27 08:56:20;;;;;;;0.00;0.00;;;15.20;99.90;;;;;;5086005;28;20078;-87
2022/10/27 08:58:48;;;;;;;0.00;0.00;;;14.60;99.90;;;;;;5086902;28;20059;-86
2022/10/27 09:01:23;;;;;;;0.00;0.00;;;14.60;99.90;;;;;;5087752;28;20043;-86
2022/10/27 09:04:04;;;;;;;0.00;0.00;;;14.90;99.90;;;;;;5088434;28;20055;-86
2022/10/27 09:06:37;;;;;;;0.00;0.00;;;14.90;99.90;;;;;;5085178;28;20472;-86
2022/10/27 09:09:15;;;;;;;0.00;0.00;;;14.90;99.90;;;;;;5081209;28;20462;-88
2022/10/27 09:11:51;;;;;;;0.10;0.10;;;15.00;99.90;;;;;;5083685;28;20098;-86
2022/10/27 09:14:36;;;;;;;0.00;0.00;;;17.00;99.90;;;;;;5081431;28;20123;-86
2022/10/27 09:17:13;;;;;;;0.00;0.00;;;15.20;99.90;;;;;;5090740;28;20047;-86
2022/10/27 09:19:44;;;;;;;0.10;0.10;;;15.30;99.90;;;;;;5086970;28;20530;-86
2022/10/27 09:22:16;;;;;;;0.00;0.00;;;15.90;99.90;;;;;;5083752;28;20045;-87
2022/10/27 09:24:50;;;;;;;0.00;0.00;;;15.60;99.90;;;;;;5085386;28;20043;-87
2022/10/27 09:27:17;;;;;;;0.00;0.00;;;15.70;99.90;;;;;;5087978;28;20055;-86
2022/10/27 09:29:45;;;;;;;0.00;0.00;;;15.80;99.90;;;;;;5090065;28;20075;-87
2022/10/27 09:32:16;;;;;;;0.00;0.00;;;15.90;99.90;;;;;;5087707;28;20076;-86
2022/10/27 09:34:47;;;;;;;0.00;0.00;;;16.10;99.90;;;;;;5084236;28;20063;-88
2022/10/27 09:37:17;;;;;;;0.00;0.00;;;16.00;99.90;;;;;;5085324;28;20078;-86
2022/10/27 09:39:45;;;;;;;;;;;16.10;99.90;;;;;;5085266;28;20036;-86
2022/10/27 09:42:12;;;;;;;0.00;0.00;;;16.20;99.90;;;;;;5090304;28;19920;-87
2022/10/27 09:44:43;;;;;;;0.00;0.00;;;16.30;99.90;;;;;;5088567;28;20043;-87
2022/10/27 09:47:10;;;;;;;0.00;0.00;;;;;;;;;;5086643;28;20044;-87
2022/10/27 09:49:41;;;;;;;0.00;0.00;;;16.50;99.90;;;;;;5085817;28;20040;-87
2022/10/27 09:52:11;;;;;;;0.00;0.00;;;16.70;99.90;;;;;;5091313;28;20035;-86
2022/10/27 09:54:47;;;;;;;0.00;0.00;;;16.60;99.90;;;;;;5088527;28;20233;-86
2022/10/27 09:57:18;;;;;;;0.00;0.00;;;16.60;99.90;;;;;;5088987;28;20048;-86
2022/10/27 09:59:51;;;;;;;0.00;0.00;;;16.70;99.90;;;;;;5085808;28;20047;-86
2022/10/27 10:02:24;;;;;;;0.00;0.00;;;18.10;99.90;;;;;;5099172;28;20119;-85
2022/10/27 10:04:51;;;;;;;0.00;0.00;;;16.90;99.90;;;;;;5078380;28;20309;-85
2022/10/27 10:07:34;;;;;;;0.00;0.00;;;16.80;99.90;;;;;;5074934;28;20135;-85
2022/10/27 10:10:07;;;;;;;0.00;0.00;;;17.00;99.90;;;;;;5083801;28;20037;-88
2022/10/27 10:12:33;;;;;;;0.00;0.00;;;17.00;99.90;;;;;;5086070;28;20471;-84
2022/10/27 10:15:17;;;;;;;0.00;0.00;;;17.00;99.90;;;;;;5083574;28;20131;-86
2022/10/27 10:17:53;;;;;;;0.00;0.00;;;17.10;99.90;;;;;;5077469;28;20044;-86
2022/10/27 10:20:32;;;;;;;0.00;0.00;;;17.10;99.90;;;;;;5083726;28;20411;-86
2022/10/27 10:23:01;;;;;;;0.00;0.00;;;17.20;99.90;;;;;;5074188;28;20101;-84
2022/10/27 10:25:32;;;;;;;0.00;0.00;;;17.30;99.90;;;;;;5089403;28;22484;-84
2022/10/27 10:28:02;;;;;;;0.00;0.00;;;17.30;99.90;;;;;;5084285;28;20040;-88
2022/10/27 10:30:32;;;;;;;0.00;0.00;;;19.10;99.90;;;;;;5086714;28;20484;-85
2022/10/27 10:33:01;;;;;;;0.00;0.00;;;;;;;;;;5075691;28;20462;-86
2022/10/27 10:35:41;;;;;;;0.00;0.00;;;17.50;99.90;;;;;;5086676;28;20471;-87
2022/10/27 10:38:33;;;;;;;0.00;0.00;;;17.60;99.90;;;;;;5075000;28;20444;-86
2022/10/27 10:41:04;;;;;;;0.00;0.00;;;17.60;99.90;;;;;;5072926;28;20052;-87
2022/10/27 10:43:32;;;;;;;0.00;0.00;;;17.60;99.90;;;;;;5076380;28;20332;-85
2022/10/27 10:45:59;;;;;;;0.00;0.00;;;17.70;99.90;;;;;;5086394;28;20332;-87
2022/10/27 10:48:33;;;;;;;0.00;0.00;;;17.70;99.90;;;;;;5082078;28;20036;-86
2022/10/27 10:51:00;;;;;;;0.00;0.00;;;17.70;99.90;;;;;;5081397;28;20055;-87
2022/10/27 10:53:30;;;;;;;0.00;0.00;;;17.70;99.90;;;;;;5097577;27;20140;-86
2022/10/27 10:56:03;;;;;;;0.00;0.00;;;17.90;99.90;;;;;;5082016;28;20063;-87
2022/10/27 10:58:32;;;;;;;0.00;0.00;;;18.00;99.90;;;;;;5081324;28;20046;-87
2022/10/27 11:01:00;;;;;;;0.00;0.00;;;18.00;99.90;;;;;;5085632;28;20047;-87
2022/10/27 11:03:32;;;;;;;0.00;0.00;;;18.10;99.90;;;;;;5088524;28;20641;-87
2022/10/27 11:06:00;;;;;;;0.00;0.00;;;18.20;99.90;;;;;;5098141;28;20068;-86
2022/10/27 11:08:37;;;;;;;0.00;0.00;;;18.30;99.90;;;;;;5083136;28;20495;-86
2022/10/27 11:11:16;;;;;;;0.00;0.00;;;18.30;99.90;;;;;;5078923;28;20536;-85
2022/10/27 11:13:47;;;;;;;0.00;0.00;;;18.30;99.90;;;;;;5084747;28;20574;-86
2022/10/27 11:16:14;;;;;;;0.00;0.00;;;18.40;99.90;;;;;;5087753;28;20050;-86
2022/10/27 11:18:45;;;;;;;0.00;0.00;;;18.40;99.90;;;;;;5090387;28;20036;-87
2022/10/27 11:21:28;;;;;;;0.00;0.00;;;18.40;99.90;;;;;;5085667;28;20044;-87
2022/10/27 11:23:58;;;;;;;0.00;0.00;;;18.50;99.90;;;;;;5088985;28;20054;-87
2022/10/27 11:26:32;;;;;;;0.00;0.00;;;18.50;99.90;;;;;;5084825;28;20131;-86
2022/10/27 11:29:10;;;;;;;0.00;0.00;;;18.50;99.90;;;;;;5083495;28;20060;-88
2022/10/27 11:31:44;;;;;;;0.00;0.00;;;18.50;99.90;;;;;;5089348;28;20058;-86
2022/10/27 11:34:20;;;;;;;0.00;0.00;;;20.10;99.90;;;;;;5087735;28;20040;-87
2022/10/27 11:36:52;;;;;;;0.00;0.00;;;18.80;99.90;;;;;;5087336;28;20055;-87
2022/10/27 11:39:22;;;;;;;0.00;0.00;;;18.90;99.90;;;;;;5096599;28;20032;-87
2022/10/27 11:41:59;;;;;;;0.00;0.00;;;19.00;99.90;;;;;;5087131;28;20496;-87
2022/10/27 11:44:33;;;;;;;0.00;0.00;;;18.70;99.90;;;;;;5094241;28;20075;-85
2022/10/27 11:47:06;;;;;;;0.00;0.00;;;18.70;99.90;;;;;;5092633;28;20045;-85
2022/10/27 11:49:41;;;;;;;0.00;0.00;;;18.80;99.90;;;;;;5085516;28;20500;-86
2022/10/27 11:52:14;;;;;;;0.00;0.00;;;18.80;99.90;;;;;;5077207;28;20072;-88
2022/10/27 11:54:42;;;;;;;0.00;0.00;;;18.80;99.90;;;;;;5086525;28;20520;-87
2022/10/27 11:57:23;;;;;;;0.00;0.00;;;18.80;99.90;;;;;;5084850;28;20048;-87
2022/10/27 12:00:15;;;;;;;0.00;0.00;;;20.90;99.90;;;;;;5086294;28;20436;-87
2022/10/27 12:03:08;;;;;;;0.00;0.00;;;18.90;99.90;;;;;;5091665;28;20044;-87
2022/10/27 12:05:44;;;;;;;0.00;0.00;;;18.90;99.90;;;;;;5090478;28;20048;-85
2022/10/27 12:08:20;;;;;;;0.00;0.00;;;19.30;99.90;;;;;;5091779;28;20542;-87
2022/10/27 12:10:57;;;;;;;0.00;0.00;;;18.90;99.90;;;;;;5086361;28;20048;-85
2022/10/27 12:13:31;;;;;;;0.00;0.00;;;20.10;99.90;;;;;;5089941;28;20115;-88
2022/10/27 12:16:01;;;;;;;0.00;0.00;;;18.90;99.90;;;;;;5085745;28;20050;-88
2022/10/27 12:18:37;;;;;;;0.00;0.00;;;19.00;99.90;;;;;;5087719;28;20048;-86
2022/10/27 12:21:11;;;;;;;0.00;0.00;;;19.00;99.90;;;;;;5089420;28;20039;-88
2022/10/27 12:23:43;;;;;;;0.00;0.00;;;19.00;99.90;;;;;;5081549;28;20098;-87
2022/10/27 12:26:15;;;;;;;0.00;0.00;;;19.00;99.90;;;;;;5089202;28;20147;-87
2022/10/27 12:28:45;;;;;;;0.00;0.00;;;19.00;99.90;;;;;;5089071;28;20044;-88
2022/10/27 12:31:15;;;;;;;;;;;18.90;99.90;;;;;;5093708;28;20127;-88
2022/10/27 12:33:48;;;;;;;0.00;0.00;;;19.00;99.90;;;;;;5082535;28;19924;-88
2022/10/27 12:36:21;;;;;;;0.00;0.00;;;19.80;99.90;;;;;;5085660;28;20044;-87
2022/10/27 12:38:55;;;;;;;0.00;0.00;;;18.90;99.90;;;;;;5091393;28;20412;-87
2022/10/27 12:41:29;;;;;;;0.00;0.00;;;18.80;99.90;;;;;;5092546;28;20543;-88
2022/10/27 12:44:06;;;;;;;0.00;0.00;;;18.90;99.90;;;;;;5092845;28;20094;-87
2022/10/27 12:46:45;;;;;;;0.00;0.00;;;18.80;99.90;;;;;;5082749;28;20484;-88
2022/10/27 12:49:22;;;;;;;0.00;0.00;;;18.90;99.90;;;;;;5093145;28;20035;-87
2022/10/27 12:52:11;;;;;;;0.00;0.00;;;18.90;99.90;;;;;;5091141;28;20078;-87
2022/10/27 12:54:54;;;;;;;0.00;0.00;;;19.00;99.90;;;;;;5090829;28;20444;-89
2022/10/27 12:57:35;;;;;;;0.00;0.00;;;19.00;99.90;;;;;;5090265;28;20845;-87
2022/10/27 13:00:10;;;;;;;0.00;0.00;;;19.10;99.90;;;;;;5087372;28;20082;-87
2022/10/27 13:02:43;;;;;;;0.00;0.00;;;19.10;99.90;;;;;;5090474;28;20553;-87
2022/10/27 13:05:32;;;;;;;0.00;0.00;;;19.10;99.90;;;;;;5086406;28;20052;-88
2022/10/27 13:08:16;;;;;;;0.00;0.00;;;19.10;99.90;;;;;;5049775;28;20105;-88
2022/10/27 13:11:07;;;;;;;0.00;0.00;;;19.20;99.90;;;;;;5093687;28;20096;-86
2022/10/27 13:13:56;;;;;;;0.00;0.00;;;19.20;99.90;;;;;;5094874;28;20103;-88
2022/10/27 13:16:34;;;;;;;0.00;0.00;;;19.20;99.90;;;;;;5091212;28;20095;-87
2022/10/27 13:19:25;;;;;;;0.00;0.00;;;19.10;99.90;;;;;;5094303;28;20044;-87
2022/10/27 13:22:02;;;;;;;0.00;0.00;;;19.10;99.90;;;;;;5092941;28;20094;-88
2022/10/27 13:24:36;;;;;;;0.00;0.00;;;19.10;99.90;;;;;;5085347;28;20104;-87